Flight Track Log - Related Links

Times and Time Zones

All times are in EDT time to prevent confusion due to time zone crossing. See the SWA419 flight status page for this flight to view local times or setup timezone preferences in your user account.


Time Position Orientation Groundspeed Altitude Reporting Facility
EDT Latitude Longitude Course Direction KTS MPH feet Rate Location/Type
Fri 09:27:11 PM 39.9167 -104.7000 270° West 179 206 6,900  Level Denver TRACON
Fri 09:28:11 PM 39.9167 -104.7833 270° West 275 316 9,000 2,300 Climbing Denver TRACON
Fri 09:29:11 PM 39.9333 -104.9000 281° West 324 373 11,500 3,246 Climbing Denver TRACON
Fri 09:30:13 PM 39.9425 -105.0278 275° West 344 396 15,600 3,290 Climbing Denver Center
Fri 09:31:15 PM 39.9264 -105.1572 261° West 363 418 18,300 2,758 Climbing Denver Center
Fri 09:32:17 PM 39.9086 -105.3067 261° West 392 451 21,300 2,710 Climbing Denver Center
Fri 09:33:19 PM 39.8922 -105.4472 261° West 396 456 23,900 2,274 Climbing Denver Center
Fri 09:34:21 PM 39.8736 -105.6028 261° West 416 479 26,000 1,694 Climbing Denver Center
Fri 09:35:23 PM 39.8544 -105.7525 261° West 420 483 27,400 1,645 Climbing Denver Center
Fri 09:36:25 PM 39.8436 -105.8989 265° West 405 466 29,400 2,177 Climbing Denver Center
Fri 09:37:27 PM 39.8308 -106.0503 264° West 414 476 31,900 2,371 Climbing Denver Center
Fri 09:38:29 PM 39.8189 -106.1933 264° West 398 458 34,300 1,984 Climbing Denver Center
Fri 09:39:31 PM 39.8056 -106.3342 263° West 391 450 36,000 1,306 Climbing Denver Center
Fri 09:40:33 PM 39.7903 -106.4958 263° West 385 443 37,000 484 Climbing Denver Center
Fri 09:41:35 PM 39.7783 -106.6333 264° West 382 440 37,000 48 Level Denver Center
Fri 09:42:37 PM 39.7658 -106.7425 262° West 382 440 37,100 441 Climbing Denver Center
Fri 09:43:51 PM 39.7475 -106.9036 262° West 379 436 38,000 394 Climbing Denver Center
Fri 09:44:54 PM 39.7300 -107.0650 262° West 381 438 38,000  Level Denver Center
Fri 09:45:56 PM 39.7128 -107.2092 261° West 379 436 38,000  Level Denver Center
Fri 09:46:58 PM 39.6961 -107.3592 262° West 376 433 38,000  Level Denver Center
Fri 09:48:00 PM 39.6811 -107.4883 261° West 378 435 38,000  Level Denver Center
Fri 09:49:02 PM 39.6636 -107.6389 261° West 377 434 38,000  Level Denver Center
Fri 09:50:04 PM 39.6481 -107.7683 261° West 379 436 38,000  Level Denver Center
Fri 09:51:06 PM 39.6297 -107.9181 261° West 378 435 38,000  Level Denver Center
Fri 09:52:08 PM 39.6142 -108.0467 261° West 377 434 38,000  Level Denver Center
Fri 09:53:10 PM 39.5967 -108.1961 261° West 377 434 38,000  Level Denver Center
Fri 09:54:12 PM 39.5800 -108.3256 261° West 381 438 38,000  Level Denver Center
Fri 09:55:14 PM 39.5653 -108.4531 262° West 374 430 38,000  Level Denver Center
Fri 09:56:16 PM 39.5469 -108.6031 261° West 374 430 38,000  Level Denver Center
Fri 09:57:18 PM 39.5294 -108.7328 260° West 376 433 38,000  Level Denver Center
Fri 09:58:20 PM 39.5092 -108.8867 260° West 382 440 38,000  Level Denver Center
Fri 09:59:22 PM 39.4922 -109.0181 261° West 383 441 38,000  Level Denver Center
Fri 10:00:24 PM 39.4764 -109.1478 261° West 381 438 38,000  Level Denver Center
Fri 10:01:26 PM 39.4558 -109.3019 260° West 388 447 38,000  Level Denver Center
Fri 10:02:28 PM 39.4392 -109.4317 261° West 382 440 38,000  Level Denver Center
Fri 10:02:54 PM 39.4306 -109.4972 260° West 385 443 38,000  Level Salt Lake Center
Fri 10:03:56 PM 39.4100 -109.6483 260° West 382 440 38,000  Level Salt Lake Center
Fri 10:04:32 PM 39.4003 -109.7119 259° West 380 437 38,000  Level Denver Center
Fri 10:05:34 PM 39.3806 -109.8597 260° West 377 434 38,000  Level Denver Center
Fri 10:05:59 PM 39.3747 -109.9028 260° West 376 433 38,000  Level Salt Lake Center
Fri 10:07:00 PM 39.3544 -110.0553 260° West 385 443 38,000  Level Salt Lake Center
Fri 10:08:02 PM 39.3383 -110.1831 261° West 378 435 38,000  Level Salt Lake Center
Fri 10:09:03 PM 39.3175 -110.3292 260° West 372 428 38,000  Level Salt Lake Center
Fri 10:09:42 PM 39.3061 -110.4142 260° West 374 430 38,000  Level Denver Center
Fri 10:10:44 PM 39.2889 -110.5397 260° West 371 427 38,000  Level Denver Center
Fri 10:11:46 PM 39.2686 -110.6825 260° West 364 419 38,000  Level Denver Center
Fri 10:12:08 PM 39.2642 -110.7247 262° West 366 421 38,000  Level Salt Lake Center
Fri 10:13:09 PM 39.2458 -110.8483 259° West 367 422 38,000  Level Salt Lake Center
Fri 10:14:11 PM 39.2228 -110.9983 259° West 380 437 38,000  Level Salt Lake Center
Fri 10:15:12 PM 39.2042 -111.1294 260° West 388 447 38,000  Level Salt Lake Center
Fri 10:16:14 PM 39.1850 -111.2783 261° West 383 441 38,000  Level Salt Lake Center
Fri 10:17:16 PM 39.1678 -111.4056 260° West 366 421 38,000  Level Salt Lake Center
Fri 10:18:17 PM 39.1472 -111.5333 258° West 366 421 38,000  Level Salt Lake Center
Fri 10:19:19 PM 39.1283 -111.6625 259° West 368 423 38,000  Level Salt Lake Center
Fri 10:20:20 PM 39.1103 -111.7903 260° West 366 421 38,000  Level Salt Lake Center
Fri 10:21:21 PM 39.0906 -111.9158 259° West 361 415 38,000  Level Salt Lake Center
Fri 10:22:23 PM 39.0722 -112.0411 259° West 357 411 38,000  Level Salt Lake Center
Fri 10:23:24 PM 39.0522 -112.1661 258° West 357 411 38,000  Level Salt Lake Center
Fri 10:24:26 PM 39.0300 -112.3164 259° West 358 412 38,000  Level Salt Lake Center
Fri 10:25:27 PM 39.0092 -112.4414 258° West 360 414 38,000  Level Salt Lake Center
Fri 10:26:29 PM 38.9897 -112.5686 259° West 364 419 38,000  Level Salt Lake Center
Fri 10:27:30 PM 38.9683 -112.6983 258° West 371 427 38,000  Level Salt Lake Center
Fri 10:28:32 PM 38.9494 -112.8267 259° West 371 427 38,000  Level Salt Lake Center
Fri 10:29:33 PM 38.9283 -112.9544 258° West 369 425 38,000  Level Salt Lake Center
Fri 10:30:35 PM 38.9072 -113.0831 258° West 370 426 38,000  Level Salt Lake Center
Fri 10:31:36 PM 38.8831 -113.2386 259° West 372 428 38,000  Level Salt Lake Center
Fri 10:32:38 PM 38.8608 -113.3714 258° West 379 436 38,000  Level Salt Lake Center
Fri 10:33:40 PM 38.8392 -113.5036 258° West 382 440 38,000  Level Salt Lake Center
Fri 10:34:41 PM 38.8175 -113.6342 258° West 377 434 38,000  Level Salt Lake Center
Fri 10:35:43 PM 38.7964 -113.7667 258° West 380 437 38,000  Level Salt Lake Center
Fri 10:36:44 PM 38.7733 -113.8989 257° West 381 438 38,000  Level Salt Lake Center
Fri 10:37:46 PM 38.7500 -114.0319 257° West 385 443 38,000  Level Salt Lake Center
Fri 10:38:47 PM 38.7236 -114.1944 258° West 390 449 38,000  Level Salt Lake Center
Fri 10:39:49 PM 38.7003 -114.3272 257° West 386 444 38,000  Level Salt Lake Center
Fri 10:40:50 PM 38.6769 -114.4594 257° West 384 442 38,000  Level Salt Lake Center
Fri 10:41:52 PM 38.6544 -114.5894 258° West 377 434 38,000  Level Salt Lake Center
Fri 10:42:53 PM 38.6306 -114.7225 257° West 384 442 38,000  Level Salt Lake Center
Fri 10:43:55 PM 38.6058 -114.8553 257° West 385 443 38,000  Level Salt Lake Center
Fri 10:44:56 PM 38.5833 -114.9844 257° West 379 436 38,000  Level Salt Lake Center
Fri 10:45:58 PM 38.5592 -115.1158 257° West 380 437 38,000  Level Salt Lake Center
Fri 10:46:59 PM 38.5314 -115.2711 257° West 377 434 38,000  Level Salt Lake Center
Fri 10:48:01 PM 38.5108 -115.3806 257° West 379 436 38,000  Level Salt Lake Center
Fri 10:49:02 PM 38.4833 -115.5372 257° West 377 434 38,000  Level Salt Lake Center
Fri 10:50:04 PM 38.4586 -115.6675 256° West 378 435 38,000  Level Salt Lake Center
Fri 10:51:05 PM 38.4344 -115.7967 257° West 376 433 38,000  Level Salt Lake Center
Fri 10:52:07 PM 38.4103 -115.9272 257° West 377 434 38,000  Level Salt Lake Center
Fri 10:53:08 PM 38.3858 -116.0583 257° West 380 437 38,000  Level Salt Lake Center
Fri 10:54:10 PM 38.3608 -116.1886 256° West 378 435 38,000  Level Salt Lake Center
Fri 10:55:11 PM 38.3358 -116.3192 256° West 380 437 38,000  Level Salt Lake Center
Fri 10:56:13 PM 38.3078 -116.4478 255° West 377 434 38,000  Level Salt Lake Center
Fri 10:56:30 PM 38.2958 -116.4989 253° West 378 435 38,000  Level Oakland Center
Fri 10:57:31 PM 38.2669 -116.6275 254° West 379 436 38,000  Level Oakland Center
Fri 10:58:32 PM 38.2383 -116.7567 254° West 379 436 38,000  Level Oakland Center
Fri 10:59:33 PM 38.2089 -116.8844 254° West 378 435 38,000  Level Oakland Center
Fri 11:00:20 PM 38.1850 -116.9869 254° West 377 434 38,000  Level Salt Lake Center
Fri 11:01:21 PM 38.1572 -117.1092 254° West 376 433 38,000  Level Salt Lake Center
Fri 11:02:22 PM 38.1231 -117.2561 254° West 377 434 38,000  Level Salt Lake Center
Fri 11:02:37 PM 38.1158 -117.2869 253° West 385 443 38,000  Level Oakland Center
Fri 11:03:38 PM 38.0869 -117.4117 254° West 378 435 38,000  Level Oakland Center
Fri 11:04:39 PM 38.0569 -117.5417 254° West 382 440 38,000  Level Oakland Center
Fri 11:05:40 PM 38.0272 -117.6689 254° West 377 434 38,000  Level Oakland Center
Fri 11:06:41 PM 37.9875 -117.7944 248° West 397 457 38,000 -246 Level Oakland Center
Fri 11:07:42 PM 37.9233 -117.9042 233° Southwest 389 448 37,500 -738 Descending Oakland Center
Fri 11:08:43 PM 37.8572 -118.0133 233° Southwest 391 450 36,500 -984 Descending Oakland Center
Fri 11:09:44 PM 37.7908 -118.1233 233° Southwest 394 453 35,500 -1,024 Descending Oakland Center
Fri 11:10:46 PM 37.7106 -118.2578 233° Southwest 400 460 34,400 -1,082 Descending Oakland Center
Fri 11:11:46 PM 37.6433 -118.3689 233° Southwest 400 460 33,300 -1,033 Descending Oakland Center
Fri 11:12:48 PM 37.5783 -118.4772 233° Southwest 390 449 32,300 -976 Descending Oakland Center
Fri 11:13:49 PM 37.5131 -118.5856 233° Southwest 387 445 31,300 -984 Descending Oakland Center
Fri 11:14:50 PM 37.4458 -118.6925 232° Southwest 390 449 30,300 -639 Descending Oakland Center
Fri 11:15:51 PM 37.3861 -118.8103 237° Southwest 373 429 30,000 -148 Descending Oakland Center
Fri 11:16:52 PM 37.3733 -118.9394 263° West 371 427 30,000 -49 Level Oakland Center
Fri 11:17:53 PM 37.3608 -119.0706 263° West 376 433 29,900 -541 Descending Oakland Center
Fri 11:18:54 PM 37.3503 -119.2119 265° West 418 481 28,900 -984 Descending Oakland Center
Fri 11:19:55 PM 37.3350 -119.3472 262° West 402 463 27,900 -934 Descending Oakland Center
Fri 11:20:56 PM 37.3175 -119.4764 260° West 374 430 27,000 -984 Descending Oakland Center
Fri 11:21:57 PM 37.3050 -119.6172 264° West 396 456 25,900 -1,033 Descending Oakland Center
Fri 11:22:58 PM 37.2906 -119.7508 262° West 388 447 24,900 -976 Descending Oakland Center
Fri 11:24:00 PM 37.2736 -119.8950 262° West 390 449 23,900 -984 Descending Oakland Center
Fri 11:25:00 PM 37.2592 -120.0267 262° West 383 441 22,900 -992 Descending Oakland Center
Fri 11:26:01 PM 37.2444 -120.1581 262° West 385 443 21,900 -1,180 Descending Oakland Center
Fri 11:27:02 PM 37.2294 -120.2883 262° West 380 437 20,500 -1,279 Descending Oakland Center
Fri 11:28:03 PM 37.2128 -120.4122 260° West 364 419 19,300 -1,176 Descending Oakland Center
Fri 11:28:44 PM 37.2000 -120.5167 261° West 431 496 18,500 -1,063 Descending Northern Cal TRACON
Fri 11:29:39 PM 37.1833 -120.6167 258° West 366 421 17,600 -1,053 Descending Northern Cal TRACON
Fri 11:30:38 PM 37.1667 -120.7500 261° West 361 415 16,500 -1,008 Descending Northern Cal TRACON
Fri 11:31:44 PM 37.1500 -120.8833 261° West 356 410 15,500 -944 Descending Northern Cal TRACON
Fri 11:32:07 PM 37.1417 -120.9228 255° West 338 389 15,100 -1,000 Descending Oakland Center
Fri 11:33:08 PM 37.1239 -121.0450 260° West 351 404 14,100 -984 Descending Oakland Center
Fri 11:34:09 PM 37.1061 -121.1642 259° West 349 402 13,100 -1,033 Descending Oakland Center
Fri 11:35:10 PM 37.0894 -121.2769 260° West 339 390 12,000 -1,525 Descending Oakland Center
Fri 11:36:11 PM 37.1014 -121.3797 278° West 306 352 10,000 -2,016 Descending Oakland Center
Fri 11:37:12 PM 37.1203 -121.4797 283° West 297 342 7,900 -2,066 Descending Oakland Center
Fri 11:38:13 PM 37.1383 -121.5767 283° West 289 333 5,800 -1,279 Descending Oakland Center
Fri 11:39:14 PM 37.1517 -121.6583 282° West 277 319 5,300 -689 Descending Oakland Center
Fri 11:40:15 PM 37.1814 -121.7389 295° West 241 277 4,400 -934 Descending Oakland Center
Fri 11:41:16 PM 37.2206 -121.7756 323° Northwest 199 229 3,400 -836 Descending Oakland Center
Fri 11:42:17 PM 37.2519 -121.8111 318° Northwest 171 197 2,700 -689 Descending Oakland Center
Fri 11:43:18 PM 37.2803 -121.8414 320° Northwest 149 171 2,000 -689 Descending Oakland Center
Fri 11:44:19 PM 37.3067 -121.8711 318° Northwest 138 159 1,300 -689 Descending Oakland Center
Fri 11:45:20 PM 37.3319 -121.8978 320° Northwest 127 146 600 11,164 Descending Oakland Center
Fri 11:46:21 PM 37.3578 -121.9256 319° Northwest 123 142 24,000 23,016 Climbing Oakland Center
Fri 11:48:00 PM 37.3500 -121.9167 North  Level FlightAware Approximate

Login

Don't have an account? Register now (free) for customized features, flight alerts, and more!